Time,TemperatureF,DewpointF,PressureIn,WindDirection,WindDirectionDegrees,WindSpeedMPH,WindSpeedGustMPH,Humidity,HourlyPrecipIn,Conditions,Clouds,dailyrainin,SoftwareType,DateUTC
2013-04-11 00:02:00,48.0,18.0,-100.00,East,82,4.0,6.0,30,-99.99,,,-99.99,,2013-04-11 07:02:00,
2013-04-11 00:12:00,49.0,18.0,-100.00,East,80,4.0,5.0,29,-99.99,,,-99.99,,2013-04-11 07:12:00,
2013-04-11 00:21:00,48.0,20.0,-100.00,East,83,6.0,8.0,32,-99.99,,,-99.99,,2013-04-11 07:21:00,
2013-04-11 00:31:00,48.0,20.0,-100.00,East,84,7.0,9.0,32,-99.99,,,-99.99,,2013-04-11 07:31:00,
2013-04-11 00:42:00,48.0,19.0,-100.00,East,84,5.0,7.0,31,-99.99,,,-99.99,,2013-04-11 07:42:00,
2013-04-11 00:52:00,48.0,18.0,-100.00,East,83,6.0,8.0,30,-99.99,,,-99.99,,2013-04-11 07:52:00,
2013-04-11 01:02:00,49.0,20.0,-100.00,East,81,5.0,8.0,31,-99.99,,,-99.99,,2013-04-11 08:02:00,
2013-04-11 01:11:00,48.0,20.0,-100.00,East,82,7.0,10.0,33,-99.99,,,-99.99,,2013-04-11 08:11:00,
2013-04-11 01:22:00,48.0,18.0,-100.00,East,81,5.0,8.0,30,-99.99,,,-99.99,,2013-04-11 08:22:00,
2013-04-11 01:32:00,48.0,18.0,-100.00,East,81,5.0,8.0,30,-99.99,,,-99.99,,2013-04-11 08:32:00,
2013-04-11 01:42:00,48.0,18.0,-100.00,East,82,5.0,8.0,30,-99.99,,,-99.99,,2013-04-11 08:42:00,
2013-04-11 01:51:00,48.0,18.0,-100.00,East,81,6.0,8.0,30,-99.99,,,-99.99,,2013-04-11 08:51:00,
2013-04-11 02:01:00,48.0,18.0,-100.00,East,81,7.0,11.0,30,-99.99,,,-99.99,,2013-04-11 09:01:00,
2013-04-11 02:11:00,49.0,18.0,-100.00,East,79,6.0,8.0,29,-99.99,,,-99.99,,2013-04-11 09:11:00,
2013-04-11 02:22:00,51.0,16.0,-100.00,ENE,76,7.0,8.0,25,-99.99,,,-99.99,,2013-04-11 09:22:00,
2013-04-11 02:32:00,50.0,16.0,-100.00,East,82,5.0,7.0,26,-99.99,,,-99.99,,2013-04-11 09:32:00,
2013-04-11 02:42:00,50.0,16.0,-100.00,East,82,5.0,7.0,26,-99.99,,,-99.99,,2013-04-11 09:42:00,
2013-04-11 02:52:00,49.0,16.0,-100.00,East,79,5.0,7.0,27,-99.99,,,-99.99,,2013-04-11 09:52:00,
2013-04-11 03:02:00,50.0,16.0,-100.00,ENE,69,2.0,4.0,25,-99.99,,,-99.99,,2013-04-11 10:02:00,
2013-04-11 03:12:00,49.0,15.0,-100.00,East,80,4.0,6.0,25,-99.99,,,-99.99,,2013-04-11 10:12:00,
2013-04-11 03:22:00,49.0,16.0,-100.00,East,79,5.0,7.0,26,-99.99,,,-99.99,,2013-04-11 10:22:00,
2013-04-11 03:32:00,49.0,16.0,-100.00,East,81,4.0,8.0,26,-99.99,,,-99.99,,2013-04-11 10:32:00,
2013-04-11 03:41:00,49.0,16.0,-100.00,East,81,4.0,8.0,26,-99.99,,,-99.99,,2013-04-11 10:41:00,
2013-04-11 03:52:00,48.0,16.0,-100.00,East,82,7.0,9.0,28,-99.99,,,-99.99,,2013-04-11 10:52:00,
2013-04-11 04:02:00,48.0,16.0,-100.00,East,82,7.0,9.0,28,-99.99,,,-99.99,,2013-04-11 11:02:00,
2013-04-11 04:12:00,51.0,14.0,-100.00,ENE,75,4.0,5.0,22,-99.99,,,-99.99,,2013-04-11 11:12:00,
2013-04-11 04:22:00,50.0,16.0,-100.00,East,82,6.0,8.0,25,-99.99,,,-99.99,,2013-04-11 11:22:00,
2013-04-11 04:32:00,50.0,16.0,-100.00,East,83,6.0,8.0,25,-99.99,,,-99.99,,2013-04-11 11:32:00,
2013-04-11 04:42:00,49.0,16.0,-100.00,East,80,7.0,9.0,27,-99.99,,,-99.99,,2013-04-11 11:42:00,
2013-04-11 04:52:00,50.0,16.0,-100.00,ENE,77,6.0,8.0,25,-99.99,,,-99.99,,2013-04-11 11:52:00,
2013-04-11 05:02:00,50.0,16.0,-100.00,East,79,6.0,8.0,25,-99.99,,,-99.99,,2013-04-11 12:02:00,
2013-04-11 05:12:00,50.0,15.0,-100.00,East,79,6.0,8.0,24,-99.99,,,-99.99,,2013-04-11 12:12:00,
2013-04-11 05:22:00,50.0,15.0,-100.00,ENE,77,6.0,8.0,24,-99.99,,,-99.99,,2013-04-11 12:22:00,
2013-04-11 05:32:00,51.0,15.0,-100.00,ENE,78,6.0,8.0,23,-99.99,,,-99.99,,2013-04-11 12:32:00,
2013-04-11 05:42:00,51.0,14.0,-100.00,ENE,74,5.0,7.0,22,-99.99,,,-99.99,,2013-04-11 12:42:00,
2013-04-11 05:52:00,51.0,14.0,-100.00,East,85,6.0,7.0,22,-99.99,,,-99.99,,2013-04-11 12:52:00,
2013-04-11 06:02:00,51.0,14.0,-100.00,East,80,5.0,6.0,22,-99.99,,,-99.99,,2013-04-11 13:02:00,
2013-04-11 06:12:00,51.0,12.0,-100.00,ENE,77,5.0,7.0,21,-99.99,,,-99.99,,2013-04-11 13:12:00,
2013-04-11 06:22:00,52.0,12.0,-100.00,ENE,76,5.0,7.0,20,-99.99,,,-99.99,,2013-04-11 13:22:00,
2013-04-11 06:32:00,51.0,11.0,-100.00,East,82,6.0,7.0,20,-99.99,,,-99.99,,2013-04-11 13:32:00,
2013-04-11 06:42:00,52.0,12.0,-100.00,East,80,6.0,8.0,20,-99.99,,,-99.99,,2013-04-11 13:42:00,
2013-04-11 06:52:00,52.0,11.0,-100.00,ENE,76,5.0,7.0,19,-99.99,,,-99.99,,2013-04-11 13:52:00,
2013-04-11 07:02:00,52.0,11.0,-100.00,East,80,5.0,6.0,19,-99.99,,,-99.99,,2013-04-11 14:02:00,
2013-04-11 07:12:00,52.0,10.0,-100.00,ENE,78,4.0,5.0,18,-99.99,,,-99.99,,2013-04-11 14:12:00,
2013-04-11 07:21:00,52.0,10.0,-100.00,East,79,6.0,7.0,18,-99.99,,,-99.99,,2013-04-11 14:21:00,
2013-04-11 07:30:00,56.0,10.0,-100.00,East,82,5.0,7.0,16,-99.99,,,-99.99,,2013-04-11 14:30:00,
2013-04-11 07:32:00,53.0,8.0,-100.00,East,80,6.0,8.0,16,-99.99,,,-99.99,,2013-04-11 14:32:00,
2013-04-11 07:42:00,54.0,9.0,-100.00,ENE,78,5.0,7.0,16,-99.99,,,-99.99,,2013-04-11 14:42:00,
2013-04-11 07:52:00,55.0,10.0,-100.00,East,79,6.0,8.0,16,-99.99,,,-99.99,,2013-04-11 14:52:00,
2013-04-11 08:02:00,56.0,10.0,-100.00,East,82,5.0,7.0,16,-99.99,,,-99.99,,2013-04-11 15:02:00,
2013-04-11 08:12:00,56.0,10.0,-100.00,East,82,5.0,7.0,16,-99.99,,,-99.99,,2013-04-11 15:12:00,
2013-04-11 08:22:00,56.0,10.0,-100.00,East,82,5.0,7.0,16,-99.99,,,-99.99,,2013-04-11 15:22:00,
2013-04-11 09:53:00,62.0,23.0,-100.00,WNW,288,9.0,15.0,22,-99.99,,,-99.99,,2013-04-11 16:53:00,
2013-04-11 10:02:00,62.0,19.0,-100.00,West,268,9.0,14.0,19,-99.99,,,-99.99,,2013-04-11 17:02:00,
2013-04-11 10:12:00,62.0,18.0,-100.00,WSW,254,10.0,15.0,18,-99.99,,,-99.99,,2013-04-11 17:12:00,
2013-04-11 10:22:00,62.0,19.0,-100.00,WSW,258,8.0,15.0,19,-99.99,,,-99.99,,2013-04-11 17:22:00,
2013-04-11 10:32:00,62.0,19.0,-100.00,WSW,257,8.0,13.0,19,-99.99,,,-99.99,,2013-04-11 17:32:00,
2013-04-11 10:42:00,63.0,20.0,-100.00,West,259,9.0,15.0,19,-99.99,,,-99.99,,2013-04-11 17:42:00,
2013-04-11 10:52:00,63.0,21.0,-100.00,WSW,254,10.0,16.0,20,-99.99,,,-99.99,,2013-04-11 17:52:00,
2013-04-11 11:02:00,63.0,21.0,-100.00,WSW,254,11.0,20.0,20,-99.99,,,-99.99,,2013-04-11 18:02:00,
2013-04-11 11:12:00,63.0,21.0,-100.00,WSW,252,13.0,20.0,20,-99.99,,,-99.99,,2013-04-11 18:12:00,
2013-04-11 11:22:00,63.0,22.0,-100.00,WSW,256,12.0,18.0,21,-99.99,,,-99.99,,2013-04-11 18:22:00,
2013-04-11 11:32:00,63.0,24.0,-100.00,West,261,12.0,19.0,22,-99.99,,,-99.99,,2013-04-11 18:32:00,
2013-04-11 11:42:00,64.0,24.0,-100.00,West,271,12.0,19.0,22,-99.99,,,-99.99,,2013-04-11 18:42:00,
2013-04-11 11:52:00,64.0,24.0,-100.00,West,267,12.0,21.0,22,-99.99,,,-99.99,,2013-04-11 18:52:00,
2013-04-11 12:02:00,64.0,24.0,-100.00,West,267,12.0,21.0,22,-99.99,,,-99.99,,2013-04-11 19:02:00,
2013-04-11 12:13:00,64.0,24.0,-100.00,West,268,13.0,24.0,22,-99.99,,,-99.99,,2013-04-11 19:13:00,
2013-04-11 12:22:00,64.0,25.0,-100.00,WSW,258,13.0,20.0,23,-99.99,,,-99.99,,2013-04-11 19:22:00,
2013-04-11 12:32:00,64.0,25.0,-100.00,West,262,13.0,23.0,23,-99.99,,,-99.99,,2013-04-11 19:32:00,
2013-04-11 12:42:00,64.0,26.0,-100.00,West,262,13.0,22.0,24,-99.99,,,-99.99,,2013-04-11 19:42:00,
2013-04-11 12:52:00,64.0,26.0,-100.00,West,260,13.0,23.0,24,-99.99,,,-99.99,,2013-04-11 19:52:00,
2013-04-11 13:02:00,64.0,26.0,-100.00,WSW,253,13.0,21.0,24,-99.99,,,-99.99,,2013-04-11 20:02:00,
2013-04-11 13:12:00,64.0,25.0,-100.00,WSW,254,13.0,23.0,23,-99.99,,,-99.99,,2013-04-11 20:12:00,
2013-04-11 13:21:00,65.0,26.0,-100.00,WSW,243,14.0,22.0,23,-99.99,,,-99.99,,2013-04-11 20:21:00,
2013-04-11 13:33:00,64.0,27.0,-100.00,WSW,242,13.0,21.0,25,-99.99,,,-99.99,,2013-04-11 20:33:00,
2013-04-11 13:42:00,65.0,28.0,-100.00,WSW,252,13.0,19.0,25,-99.99,,,-99.99,,2013-04-11 20:42:00,
2013-04-11 13:52:00,65.0,29.0,-100.00,West,279,13.0,20.0,26,-99.99,,,-99.99,,2013-04-11 20:52:00,
2013-04-11 14:02:00,65.0,30.0,-100.00,WSW,246,13.0,20.0,27,-99.99,,,-99.99,,2013-04-11 21:02:00,
2013-04-11 14:11:00,64.0,30.0,-100.00,WSW,241,12.0,19.0,28,-99.99,,,-99.99,,2013-04-11 21:11:00,
2013-04-11 14:22:00,64.0,31.0,-100.00,SW,235,12.0,18.0,29,-99.99,,,-99.99,,2013-04-11 21:22:00,
2013-04-11 14:32:00,64.0,31.0,-100.00,WSW,252,11.0,17.0,29,-99.99,,,-99.99,,2013-04-11 21:32:00,
2013-04-11 14:42:00,65.0,31.0,-100.00,WSW,255,10.0,16.0,28,-99.99,,,-99.99,,2013-04-11 21:42:00,
2013-04-11 14:53:00,65.0,33.0,-100.00,West,266,11.0,17.0,30,-99.99,,,-99.99,,2013-04-11 21:53:00,
2013-04-11 15:02:00,65.0,33.0,-100.00,WSW,246,11.0,18.0,30,-99.99,,,-99.99,,2013-04-11 22:02:00,
2013-04-11 15:13:00,66.0,34.0,-100.00,WSW,247,9.0,17.0,30,-99.99,,,-99.99,,2013-04-11 22:13:00,
2013-04-11 15:22:00,66.0,32.0,-100.00,SW,233,9.0,17.0,28,-99.99,,,-99.99,,2013-04-11 22:22:00,
2013-04-11 15:32:00,66.0,33.0,-100.00,WSW,248,10.0,17.0,29,-99.99,,,-99.99,,2013-04-11 22:32:00,
2013-04-11 15:43:00,66.0,33.0,-100.00,WSW,252,11.0,21.0,29,-99.99,,,-99.99,,2013-04-11 22:43:00,
2013-04-11 15:52:00,66.0,32.0,-100.00,West,261,11.0,19.0,28,-99.99,,,-99.99,,2013-04-11 22:52:00,
2013-04-11 16:03:00,67.0,33.0,-100.00,West,259,11.0,19.0,28,-99.99,,,-99.99,,2013-04-11 23:03:00,
2013-04-11 16:12:00,66.0,33.0,-100.00,West,260,12.0,20.0,29,-99.99,,,-99.99,,2013-04-11 23:12:00,
2013-04-11 16:22:00,66.0,34.0,-100.00,WSW,256,11.0,18.0,30,-99.99,,,-99.99,,2013-04-11 23:22:00,
2013-04-11 16:32:00,66.0,37.0,-100.00,West,269,12.0,20.0,34,-99.99,,,-99.99,,2013-04-11 23:32:00,
2013-04-11 16:42:00,65.0,37.0,-100.00,West,259,12.0,22.0,35,-99.99,,,-99.99,,2013-04-11 23:42:00,
2013-04-11 16:52:00,65.0,37.0,-100.00,West,266,12.0,18.0,36,-99.99,,,-99.99,,2013-04-11 23:52:00,
2013-04-11 17:02:00,65.0,37.0,-100.00,West,273,11.0,18.0,36,-99.99,,,-99.99,,2013-04-12 00:02:00,
2013-04-11 17:12:00,65.0,37.0,-100.00,West,281,12.0,19.0,36,-99.99,,,-99.99,,2013-04-12 00:12:00,
2013-04-11 17:21:00,64.0,36.0,-100.00,West,273,10.0,17.0,35,-99.99,,,-99.99,,2013-04-12 00:21:00,
2013-04-11 17:32:00,64.0,35.0,-100.00,West,265,11.0,16.0,34,-99.99,,,-99.99,,2013-04-12 00:32:00,
2013-04-11 17:42:00,64.0,35.0,-100.00,West,265,11.0,16.0,34,-99.99,,,-99.99,,2013-04-12 00:42:00,
2013-04-11 17:52:00,63.0,38.0,-100.00,West,268,9.0,16.0,39,-99.99,,,-99.99,,2013-04-12 00:52:00,
2013-04-11 18:02:00,63.0,39.0,-100.00,West,268,8.0,15.0,41,-99.99,,,-99.99,,2013-04-12 01:02:00,
2013-04-11 18:12:00,63.0,40.0,-100.00,West,262,9.0,15.0,42,-99.99,,,-99.99,,2013-04-12 01:12:00,
2013-04-11 18:22:00,62.0,40.0,-100.00,WSW,256,10.0,14.0,44,-99.99,,,-99.99,,2013-04-12 01:22:00,
2013-04-11 18:32:00,61.0,41.0,-100.00,WSW,246,11.0,14.0,48,-99.99,,,-99.99,,2013-04-12 01:32:00,
2013-04-11 18:42:00,60.0,40.0,-100.00,West,264,8.0,13.0,47,-99.99,,,-99.99,,2013-04-12 01:42:00,
2013-04-11 18:52:00,61.0,40.0,-100.00,West,266,8.0,14.0,46,-99.99,,,-99.99,,2013-04-12 01:52:00,
2013-04-11 19:02:00,60.0,37.0,-100.00,WSW,245,8.0,11.0,43,-99.99,,,-99.99,,2013-04-12 02:02:00,
2013-04-11 19:12:00,60.0,39.0,-100.00,WSW,251,5.0,9.0,45,-99.99,,,-99.99,,2013-04-12 02:12:00,
2013-04-11 19:22:00,60.0,41.0,-100.00,West,269,4.0,8.0,50,-99.99,,,-99.99,,2013-04-12 02:22:00,
2013-04-11 19:32:00,59.0,43.0,-100.00,West,270,5.0,7.0,56,-99.99,,,-99.99,,2013-04-12 02:32:00,
2013-04-11 19:42:00,57.0,44.0,-100.00,WSW,251,4.0,6.0,62,-99.99,,,-99.99,,2013-04-12 02:42:00,
2013-04-11 19:52:00,56.0,44.0,-100.00,NNE,20,3.0,7.0,65,-99.99,,,-99.99,,2013-04-12 02:52:00,
2013-04-11 20:01:00,56.0,44.0,-100.00,ENE,78,4.0,7.0,63,-99.99,,,-99.99,,2013-04-12 03:01:00,
2013-04-11 20:12:00,55.0,43.0,-100.00,East,90,3.0,4.0,63,-99.99,,,-99.99,,2013-04-12 03:12:00,
2013-04-11 20:22:00,55.0,43.0,-100.00,East,97,2.0,5.0,63,-99.99,,,-99.99,,2013-04-12 03:22:00,
2013-04-11 20:33:00,54.0,42.0,-100.00,East,80,4.0,6.0,64,-99.99,,,-99.99,,2013-04-12 03:33:00,
2013-04-11 20:43:00,55.0,42.0,-100.00,East,82,2.0,5.0,62,-99.99,,,-99.99,,2013-04-12 03:43:00,
2013-04-11 20:52:00,54.0,41.0,-100.00,East,95,3.0,5.0,62,-99.99,,,-99.99,,2013-04-12 03:52:00,
2013-04-11 21:02:00,54.0,41.0,-100.00,East,95,3.0,5.0,62,-99.99,,,-99.99,,2013-04-12 04:02:00,
2013-04-11 21:13:00,53.0,40.0,-100.00,East,83,3.0,5.0,62,-99.99,,,-99.99,,2013-04-12 04:13:00,
2013-04-11 21:22:00,52.0,39.0,-100.00,East,91,3.0,5.0,62,-99.99,,,-99.99,,2013-04-12 04:22:00,
2013-04-11 21:33:00,52.0,39.0,-100.00,East,87,3.0,4.0,60,-99.99,,,-99.99,,2013-04-12 04:33:00,
2013-04-11 21:43:00,52.0,40.0,-100.00,East,85,4.0,6.0,63,-99.99,,,-99.99,,2013-04-12 04:43:00,
2013-04-11 21:52:00,52.0,41.0,-100.00,East,84,4.0,6.0,67,-99.99,,,-99.99,,2013-04-12 04:52:00,
2013-04-11 22:02:00,52.0,42.0,-100.00,East,95,9.0,11.0,68,-99.99,,,-99.99,,2013-04-12 05:02:00,
2013-04-11 22:11:00,52.0,41.0,-100.00,East,90,10.0,12.0,66,-99.99,,,-99.99,,2013-04-12 05:11:00,
2013-04-11 22:22:00,51.0,40.0,-100.00,East,98,10.0,12.0,66,-99.99,,,-99.99,,2013-04-12 05:22:00,
2013-04-11 22:32:00,52.0,37.0,-100.00,East,95,10.0,11.0,57,-99.99,,,-99.99,,2013-04-12 05:32:00,
2013-04-11 22:42:00,52.0,36.0,-100.00,East,86,10.0,12.0,54,-99.99,,,-99.99,,2013-04-12 05:42:00,
2013-04-11 22:52:00,53.0,36.0,-100.00,East,89,11.0,13.0,52,-99.99,,,-99.99,,2013-04-12 05:52:00,
2013-04-11 23:02:00,54.0,35.0,-100.00,East,90,9.0,11.0,49,-99.99,,,-99.99,,2013-04-12 06:02:00,
2013-04-11 23:12:00,53.0,35.0,-100.00,East,96,9.0,11.0,50,-99.99,,,-99.99,,2013-04-12 06:12:00,
2013-04-11 23:22:00,54.0,35.0,-100.00,East,97,10.0,12.0,49,-99.99,,,-99.99,,2013-04-12 06:22:00,
2013-04-11 23:32:00,53.0,35.0,-100.00,East,92,9.0,11.0,50,-99.99,,,-99.99,,2013-04-12 06:32:00,
2013-04-11 23:42:00,53.0,35.0,-100.00,East,88,9.0,10.0,51,-99.99,,,-99.99,,2013-04-12 06:42:00,
2013-04-11 23:52:00,53.0,34.0,-100.00,East,93,7.0,10.0,49,-99.99,,,-99.99,,2013-04-12 06:52:00,